createdAt,value
2019-05-02T00:02:01.088Z,55.83
2019-05-02T00:04:30.973Z,55.09
2019-05-02T00:07:22.205Z,56.11
2019-05-02T00:09:52.423Z,55.94
2019-05-02T00:12:22.303Z,56.00
2019-05-02T00:14:56.461Z,55.75
2019-05-02T00:17:25.650Z,55.91
2019-05-02T00:19:55.830Z,56.51
2019-05-02T00:22:26.256Z,56.42
2019-05-02T00:24:56.070Z,57.45
2019-05-02T00:27:26.646Z,56.95
2019-05-02T00:29:58.837Z,57.40
2019-05-02T00:32:27.738Z,57.08
2019-05-02T00:34:57.491Z,57.20
2019-05-02T00:37:27.702Z,56.34
2019-05-02T00:39:57.907Z,57.06
2019-05-02T00:42:27.624Z,57.22
2019-05-02T00:44:57.532Z,57.06
2019-05-02T00:47:47.910Z,57.08
2019-05-02T00:50:17.460Z,57.13
2019-05-02T00:52:47.545Z,57.27
2019-05-02T00:55:17.655Z,57.48
2019-05-02T00:57:50.945Z,56.94
2019-05-02T01:00:19.836Z,57.21
2019-05-02T01:03:02.026Z,57.59
2019-05-02T01:05:33.832Z,58.07
2019-05-02T01:08:04.339Z,58.65
2019-05-02T01:10:34.573Z,57.95
2019-05-02T01:13:04.254Z,58.43
2019-05-02T01:15:34.056Z,58.31
2019-05-02T01:18:06.086Z,58.64
2019-05-02T01:20:35.539Z,58.02
2019-05-02T01:23:05.319Z,58.81
2019-05-02T01:25:35.118Z,58.02
2019-05-02T01:28:20.712Z,58.37
2019-05-02T01:31:13.135Z,57.99
2019-05-02T01:34:13.051Z,58.73
2019-05-02T01:36:48.740Z,58.26
2019-05-02T01:39:18.585Z,57.86
2019-05-02T01:41:48.349Z,57.52
2019-05-02T01:44:18.445Z,57.45
2019-05-02T01:46:48.367Z,57.87
2019-05-02T01:49:21.813Z,57.70
2019-05-02T01:51:50.304Z,57.73
2019-05-02T01:54:20.006Z,57.23
2019-05-02T01:56:49.846Z,57.64
2019-05-02T01:59:19.647Z,57.92
2019-05-02T02:01:53.102Z,57.42
2019-05-02T02:04:22.281Z,58.08
2019-05-02T02:06:52.205Z,58.44
2019-05-02T02:09:22.693Z,57.42
2019-05-02T02:11:52.688Z,57.62
2019-05-02T02:14:22.428Z,57.75
2019-05-02T02:16:52.214Z,57.52
2019-05-02T02:19:40.776Z,58.69
2019-05-02T02:22:28.363Z,58.01
2019-05-02T02:25:15.968Z,57.86
2019-05-02T02:27:45.952Z,58.04
2019-05-02T02:30:17.727Z,57.86
2019-05-02T02:32:48.029Z,57.69
2019-05-02T02:35:17.893Z,58.32
2019-05-02T02:37:53.095Z,58.35
2019-05-02T02:40:19.141Z,60.69
2019-05-02T02:42:48.983Z,59.93
2019-05-02T02:46:00.030Z,60.65
2019-05-02T02:48:33.902Z,61.63
2019-05-02T02:51:01.981Z,62.69
2019-05-02T02:53:31.904Z,62.92
2019-05-02T02:56:07.206Z,63.69
2019-05-02T02:58:45.249Z,65.10
2019-05-02T03:01:09.665Z,64.08
2019-05-02T03:03:39.394Z,67.98
2019-05-02T03:06:09.634Z,67.40
2019-05-02T03:08:46.143Z,70.18
2019-05-02T03:11:22.310Z,67.55
2019-05-02T03:13:59.692Z,73.31
2019-05-02T03:16:26.637Z,82.38
2019-05-02T03:18:56.513Z,83.92
2019-05-02T03:21:26.161Z,90.14
2019-05-02T03:24:03.026Z,94.83
2019-05-02T03:26:28.015Z,93.70
2019-05-02T03:29:00.454Z,96.91
2019-05-02T03:31:31.005Z,97.90
2019-05-02T03:34:17.117Z,95.78
2019-05-02T03:36:46.958Z,95.34
2019-05-02T03:39:17.528Z,100.00
2019-05-02T03:41:47.467Z,100.00
2019-05-02T03:44:24.661Z,98.78
2019-05-02T03:46:54.276Z,100.00
2019-05-02T03:49:20.637Z,100.00
2019-05-02T03:51:55.831Z,100.00
2019-05-02T03:54:22.442Z,100.00
2019-05-02T03:56:53.454Z,100.00
2019-05-02T03:59:23.327Z,100.00
2019-05-02T04:01:53.530Z,100.00
2019-05-02T04:04:23.256Z,100.00
2019-05-02T04:06:55.052Z,100.00
2019-05-02T04:09:40.049Z,100.00
2019-05-02T04:12:18.689Z,99.37
2019-05-02T04:14:41.022Z,90.52
2019-05-02T04:17:12.286Z,91.63
2019-05-02T04:19:42.167Z,91.52
2019-05-02T04:22:12.516Z,88.68
2019-05-02T04:24:48.005Z,88.26
2019-05-02T04:27:15.849Z,93.36
2019-05-02T04:29:45.690Z,94.54
2019-05-02T04:32:16.019Z,93.29
2019-05-02T04:34:49.058Z,97.58
2019-05-02T04:37:17.891Z,96.55
2019-05-02T04:39:49.124Z,92.72
2019-05-02T04:42:22.881Z,92.52
2019-05-02T04:45:12.027Z,89.36
2019-05-02T04:47:23.431Z,87.57
2019-05-02T04:49:53.613Z,86.05
2019-05-02T04:52:24.663Z,83.21
2019-05-02T04:55:08.016Z,81.93
2019-05-02T04:57:35.960Z,81.97
2019-05-02T05:00:06.147Z,80.96
2019-05-02T05:02:36.640Z,81.57
2019-05-02T05:05:02.103Z,81.33
2019-05-02T05:07:40.910Z,79.32
2019-05-02T05:10:04.325Z,80.84
2019-05-02T05:12:38.035Z,78.48
2019-05-02T05:15:07.830Z,81.99
2019-05-02T05:17:37.783Z,80.63
2019-05-02T05:20:14.166Z,80.02
2019-05-02T05:22:44.136Z,82.45
2019-05-02T05:25:17.794Z,79.58
2019-05-02T05:27:52.710Z,80.14
2019-05-02T05:30:19.714Z,81.80
2019-05-02T05:32:49.433Z,83.17
2019-05-02T05:35:19.247Z,82.68
2019-05-02T05:37:52.947Z,81.67
2019-05-02T05:40:22.657Z,83.38
2019-05-02T05:42:53.016Z,82.52
2019-05-02T05:45:22.647Z,82.68
2019-05-02T05:47:57.545Z,81.88
2019-05-02T05:50:24.618Z,80.86
2019-05-02T05:52:54.932Z,78.41
2019-05-02T05:55:24.849Z,76.51
2019-05-02T05:57:59.638Z,78.48
2019-05-02T06:00:27.825Z,78.67
2019-05-02T06:03:10.284Z,78.93
2019-05-02T06:05:33.304Z,76.66
2019-05-02T06:08:00.989Z,78.86
2019-05-02T06:10:30.713Z,82.08
2019-05-02T06:13:00.505Z,85.29
2019-05-02T06:15:33.879Z,88.08
2019-05-02T06:18:04.716Z,88.60
2019-05-02T06:20:34.389Z,91.21
2019-05-02T06:23:04.319Z,84.92
2019-05-02T06:25:36.781Z,85.96
2019-05-02T06:28:06.761Z,89.47
2019-05-02T06:30:36.663Z,92.47
2019-05-02T06:33:06.499Z,91.84
2019-05-02T06:35:36.292Z,88.54
2019-05-02T06:38:06.040Z,81.66
2019-05-02T06:40:39.287Z,77.38
2019-05-02T06:43:09.863Z,73.62
2019-05-02T06:45:39.707Z,73.81
2019-05-02T06:48:17.242Z,75.52
2019-05-02T06:50:41.056Z,73.59
2019-05-02T06:53:11.261Z,74.91
2019-05-02T06:55:40.896Z,71.44
2019-05-02T06:58:10.555Z,72.25
2019-05-02T07:00:56.689Z,65.91
2019-05-02T07:03:11.787Z,64.75
2019-05-02T07:05:41.588Z,61.34
2019-05-02T07:08:13.534Z,59.78
2019-05-02T07:10:44.778Z,60.55
2019-05-02T07:13:15.157Z,59.17
2019-05-02T07:16:15.233Z,58.77
2019-05-02T07:18:47.411Z,58.11
2019-05-02T07:21:23.184Z,59.79
2019-05-02T07:23:53.753Z,58.02
2019-05-02T07:26:23.339Z,56.10
2019-05-02T07:28:53.461Z,55.99
2019-05-02T07:31:23.217Z,54.21
2019-05-02T07:33:52.954Z,53.27
2019-05-02T07:36:22.754Z,53.31
2019-05-02T07:38:52.556Z,51.79
2019-05-02T07:41:24.237Z,51.32
2019-05-02T07:43:56.335Z,52.19
2019-05-02T07:46:24.968Z,53.07
2019-05-02T07:48:54.984Z,52.53
2019-05-02T07:51:26.077Z,51.32
2019-05-02T07:53:56.054Z,51.74
2019-05-02T07:56:25.701Z,50.76
2019-05-02T07:58:55.401Z,50.34
2019-05-02T08:01:25.067Z,48.16
2019-05-02T08:03:54.774Z,46.67
2019-05-02T08:06:34.935Z,49.61
2019-05-02T08:08:56.005Z,46.33
2019-05-02T08:11:25.821Z,47.61
2019-05-02T08:14:00.109Z,47.49
2019-05-02T08:16:27.386Z,45.32
2019-05-02T08:19:01.403Z,45.66
2019-05-02T08:21:32.498Z,45.42
2019-05-02T08:24:02.317Z,44.11
2019-05-02T08:26:53.462Z,44.04
2019-05-02T08:29:23.290Z,42.87
2019-05-02T08:31:53.895Z,43.35
2019-05-02T08:34:30.714Z,45.32
2019-05-02T08:37:03.355Z,41.23
2019-05-02T08:39:33.877Z,42.54
2019-05-02T08:42:03.409Z,43.82
2019-05-02T08:44:33.022Z,42.94
2019-05-02T08:47:02.731Z,42.54
2019-05-02T08:49:32.335Z,42.96
2019-05-02T08:52:01.945Z,44.64
2019-05-02T08:54:32.828Z,44.79
2019-05-02T08:57:03.050Z,40.37
2019-05-02T08:59:32.734Z,41.94
2019-05-02T09:02:02.410Z,39.95
2019-05-02T09:04:32.072Z,38.79
2019-05-02T09:07:01.806Z,39.64
2019-05-02T09:09:31.442Z,38.60
2019-05-02T09:12:11.469Z,38.25
2019-05-02T09:14:32.560Z,37.87
2019-05-02T09:17:08.574Z,38.59
2019-05-02T09:19:34.861Z,39.09
2019-05-02T09:22:07.456Z,39.13
2019-05-02T09:24:36.180Z,39.28
2019-05-02T09:27:05.878Z,39.36
2019-05-02T09:29:37.329Z,38.39
2019-05-02T09:32:07.121Z,38.22
2019-05-02T09:34:36.865Z,38.11
2019-05-02T09:37:06.515Z,38.67
2019-05-02T09:39:36.656Z,37.13
2019-05-02T09:42:10.843Z,37.33
2019-05-02T09:44:37.900Z,38.28
2019-05-02T09:47:09.202Z,38.47
2019-05-02T09:49:41.730Z,37.13
2019-05-02T09:52:11.868Z,36.89
2019-05-02T09:54:46.009Z,35.44
2019-05-02T09:57:15.479Z,36.76
2019-05-02T09:59:50.523Z,36.56
2019-05-02T10:02:16.555Z,36.59
2019-05-02T10:04:46.189Z,35.11
2019-05-02T10:07:15.933Z,36.48
2019-05-02T10:09:45.765Z,34.25
2019-05-02T10:12:15.412Z,35.85
2019-05-02T10:14:45.136Z,34.52
2019-05-02T10:17:14.857Z,34.96
2019-05-02T10:19:49.531Z,33.86
2019-05-02T10:22:16.073Z,33.48
2019-05-02T10:24:46.339Z,35.26
2019-05-02T10:27:16.419Z,35.11
2019-05-02T10:29:46.128Z,34.42
2019-05-02T10:32:16.781Z,34.64
2019-05-02T10:34:47.591Z,32.71
2019-05-02T10:37:17.904Z,33.84
2019-05-02T10:39:48.231Z,33.21
2019-05-02T10:42:17.925Z,33.15
2019-05-02T10:44:47.702Z,32.13
2019-05-02T10:47:17.348Z,32.35
2019-05-02T10:50:02.312Z,31.68
2019-05-02T10:52:34.316Z,32.46
2019-05-02T10:55:03.511Z,33.39
2019-05-02T10:57:33.486Z,33.86
2019-05-02T11:00:04.017Z,33.56
2019-05-02T11:03:12.043Z,32.58
2019-05-02T11:05:43.754Z,32.64
2019-05-02T11:08:13.699Z,33.49
2019-05-02T11:10:44.628Z,32.94
2019-05-02T11:13:23.726Z,32.02
2019-05-02T11:16:18.503Z,33.86
2019-05-02T11:19:09.844Z,32.20
2019-05-02T11:21:52.271Z,30.88
2019-05-02T11:24:13.662Z,30.71
2019-05-02T11:26:42.993Z,31.17
2019-05-02T11:29:12.784Z,31.31
2019-05-02T11:31:42.814Z,30.67
2019-05-02T11:34:12.628Z,31.17
2019-05-02T11:36:42.695Z,30.87
2019-05-02T11:39:20.437Z,29.64
2019-05-02T11:41:44.178Z,30.71
2019-05-02T11:44:13.919Z,31.41
2019-05-02T11:46:46.838Z,31.32
2019-05-02T11:49:15.515Z,32.31
2019-05-02T11:51:47.024Z,32.38
2019-05-02T11:54:16.935Z,32.00
2019-05-02T11:56:51.344Z,31.78
2019-05-02T11:59:20.792Z,31.73
2019-05-02T12:02:00.112Z,31.85
2019-05-02T12:04:32.585Z,30.46
2019-05-02T12:07:04.853Z,31.98
2019-05-02T12:09:33.928Z,33.55
2019-05-02T12:12:03.616Z,37.12
2019-05-02T12:14:36.329Z,36.58
2019-05-02T12:17:05.063Z,38.82
2019-05-02T12:19:35.559Z,38.29
2019-05-02T12:22:07.234Z,37.81
2019-05-02T12:24:40.848Z,37.32
2019-05-02T12:27:08.598Z,35.58
2019-05-02T12:29:38.506Z,37.13
2019-05-02T12:32:08.228Z,37.33
2019-05-02T12:34:37.838Z,36.81
2019-05-02T12:37:07.510Z,36.46
2019-05-02T12:39:37.378Z,34.60
2019-05-02T12:42:07.772Z,33.32
2019-05-02T12:44:37.558Z,31.21
2019-05-02T12:47:08.651Z,32.52
2019-05-02T12:49:38.336Z,31.24
2019-05-02T12:52:08.108Z,32.21
2019-05-02T12:54:37.778Z,32.22
2019-05-02T12:57:07.552Z,32.12
2019-05-02T12:59:37.231Z,31.24
2019-05-02T13:02:12.171Z,31.72
2019-05-02T13:04:42.053Z,31.36
2019-05-02T13:07:12.806Z,31.03
2019-05-02T13:09:42.607Z,31.14
2019-05-02T13:12:22.798Z,30.17
2019-05-02T13:14:53.543Z,28.82
2019-05-02T13:17:25.847Z,29.28
2019-05-02T13:20:00.755Z,29.00
2019-05-02T13:22:52.770Z,28.58
2019-05-02T13:25:27.259Z,29.63
2019-05-02T13:27:55.730Z,28.02
2019-05-02T13:30:42.872Z,28.78
2019-05-02T13:33:34.441Z,27.70
2019-05-02T13:35:59.268Z,27.82
2019-05-02T13:38:32.935Z,27.89
2019-05-02T13:41:08.208Z,29.32
2019-05-02T13:43:44.516Z,29.06
2019-05-02T13:46:22.401Z,28.63
2019-05-02T13:48:52.570Z,28.64
2019-05-02T13:51:22.457Z,27.32
2019-05-02T13:54:02.400Z,26.10
2019-05-02T13:56:52.813Z,26.05
2019-05-02T13:59:22.616Z,26.00
2019-05-02T14:01:53.986Z,26.72
2019-05-02T14:04:23.817Z,26.36
2019-05-02T14:06:53.621Z,26.82
2019-05-02T14:09:50.912Z,27.22
2019-05-02T14:12:32.046Z,28.29
2019-05-02T14:15:03.114Z,27.61
2019-05-02T14:17:33.088Z,27.35
2019-05-02T14:20:10.324Z,26.80
2019-05-02T14:22:34.164Z,28.82
2019-05-02T14:25:04.014Z,27.64
2019-05-02T14:27:34.204Z,28.63
2019-05-02T14:30:04.163Z,28.13
2019-05-02T14:32:33.912Z,27.83
2019-05-02T14:35:24.150Z,27.55
2019-05-02T14:38:14.150Z,28.00
2019-05-02T14:41:03.568Z,27.04
2019-05-02T14:43:53.759Z,28.48
2019-05-02T14:46:33.265Z,27.59
2019-05-02T14:48:59.334Z,28.10
2019-05-02T14:51:29.155Z,27.20
2019-05-02T14:54:03.496Z,28.00
2019-05-02T14:57:07.605Z,29.12
2019-05-02T14:59:37.366Z,28.56
2019-05-02T15:02:12.987Z,27.68
2019-05-02T15:04:44.384Z,27.35
2019-05-02T15:07:17.609Z,27.60
2019-05-02T15:09:45.654Z,27.78
2019-05-02T15:12:18.826Z,28.57
2019-05-02T15:14:49.735Z,28.36
2019-05-02T15:17:18.736Z,28.18
2019-05-02T15:19:48.801Z,28.55
2019-05-02T15:22:18.527Z,27.33
2019-05-02T15:24:48.602Z,26.69
2019-05-02T15:27:18.779Z,26.75
2019-05-02T15:29:48.541Z,26.59
2019-05-02T15:32:32.450Z,25.79
2019-05-02T15:35:24.913Z,25.96
2019-05-02T15:37:56.688Z,27.08
2019-05-02T15:42:56.841Z,27.08
2019-05-02T15:45:26.896Z,27.31
2019-05-02T15:47:56.999Z,26.60
2019-05-02T15:50:26.745Z,27.13
2019-05-02T15:53:03.243Z,27.34
2019-05-02T15:55:39.357Z,27.91
2019-05-02T15:58:04.920Z,27.91
2019-05-02T16:00:41.971Z,27.99
2019-05-02T16:03:12.216Z,28.74
2019-05-02T16:05:45.126Z,27.87
2019-05-02T16:08:14.504Z,28.06
2019-05-02T16:10:44.245Z,27.82
2019-05-02T16:13:17.061Z,27.71
2019-05-02T16:15:46.790Z,28.08
2019-05-02T16:18:16.558Z,28.48
2019-05-02T16:21:04.702Z,28.72
2019-05-02T16:23:32.910Z,29.30
2019-05-02T16:26:05.831Z,29.64
2019-05-02T16:28:36.796Z,29.76
2019-05-02T16:31:08.681Z,30.21
2019-05-02T16:33:38.480Z,30.37
2019-05-02T16:36:08.860Z,30.75
2019-05-02T16:38:38.719Z,30.79
2019-05-02T16:41:09.740Z,31.30
2019-05-02T16:43:41.919Z,31.52
2019-05-02T16:46:14.087Z,31.55
2019-05-02T16:48:43.730Z,31.81
2019-05-02T16:51:29.971Z,32.45
2019-05-02T16:53:46.605Z,32.35
2019-05-02T16:56:16.407Z,32.82
2019-05-02T16:58:47.287Z,32.57
2019-05-02T17:01:24.545Z,32.85
2019-05-02T17:03:48.868Z,32.72
2019-05-02T17:06:22.353Z,32.62
2019-05-02T17:09:11.934Z,32.70
2019-05-02T17:11:43.769Z,32.58
2019-05-02T17:14:13.607Z,33.04
2019-05-02T17:16:47.068Z,33.24
2019-05-02T17:19:14.800Z,32.80
2019-05-02T17:21:54.006Z,32.43
2019-05-02T17:24:17.423Z,32.91
2019-05-02T17:26:48.512Z,33.08
2019-05-02T17:29:21.449Z,32.87
2019-05-02T17:31:54.595Z,33.09
2019-05-02T17:34:24.414Z,33.95
2019-05-02T17:36:53.763Z,33.70
2019-05-02T17:39:23.622Z,33.83
2019-05-02T17:41:53.552Z,33.69
2019-05-02T17:44:24.664Z,33.57
2019-05-02T17:46:58.278Z,33.86
2019-05-02T17:49:34.829Z,34.38
2019-05-02T17:52:26.686Z,34.75
2019-05-02T17:54:57.431Z,34.89
2019-05-02T17:57:28.454Z,34.28
2019-05-02T17:59:56.583Z,34.81
2019-05-02T18:02:26.624Z,34.70
2019-05-02T18:04:56.352Z,34.92
2019-05-02T18:07:32.116Z,34.71
2019-05-02T18:09:57.764Z,34.95
2019-05-02T18:12:27.895Z,34.92
2019-05-02T18:14:59.231Z,35.03
2019-05-02T18:17:31.780Z,34.93
2019-05-02T18:20:05.915Z,35.22
2019-05-02T18:22:34.843Z,34.87
2019-05-02T18:25:06.533Z,35.14
2019-05-02T18:27:36.455Z,34.92
2019-05-02T18:30:08.031Z,35.41
2019-05-02T18:32:38.448Z,35.44
2019-05-02T18:35:11.729Z,35.83
2019-05-02T18:37:46.404Z,35.43
2019-05-02T18:40:14.024Z,35.58
2019-05-02T18:42:43.815Z,36.03
2019-05-02T18:45:18.335Z,36.25
2019-05-02T18:47:48.194Z,36.02
2019-05-02T18:50:44.439Z,35.93
2019-05-02T18:53:10.550Z,36.15
2019-05-02T18:55:42.170Z,36.44
2019-05-02T18:58:12.831Z,36.50
2019-05-02T19:00:42.994Z,36.37
2019-05-02T19:03:17.174Z,36.55
2019-05-02T19:05:46.620Z,36.75
2019-05-02T19:08:28.192Z,36.71
2019-05-02T19:11:02.650Z,36.82
2019-05-02T19:13:19.396Z,37.16
2019-05-02T19:15:49.260Z,37.36
2019-05-02T19:18:19.710Z,37.62
2019-05-02T19:21:03.485Z,37.70
2019-05-02T19:23:35.240Z,37.87
2019-05-02T19:26:09.937Z,37.81
2019-05-02T19:29:03.507Z,37.83
2019-05-02T19:31:44.416Z,37.90
2019-05-02T19:34:11.986Z,38.02
2019-05-02T19:36:43.654Z,38.05
2019-05-02T19:39:13.548Z,37.73
2019-05-02T19:41:45.621Z,37.82
2019-05-02T19:44:21.426Z,37.75
2019-05-02T19:46:47.951Z,38.01
2019-05-02T19:49:17.723Z,38.00
2019-05-02T19:51:54.304Z,37.90
2019-05-02T19:54:19.086Z,37.79
2019-05-02T19:56:48.903Z,37.66
2019-05-02T19:59:24.664Z,37.45
2019-05-02T20:01:52.214Z,37.34
2019-05-02T20:04:22.429Z,36.91
2019-05-02T20:06:52.619Z,37.22
2019-05-02T20:09:22.340Z,37.50
2019-05-02T20:11:52.675Z,37.35
2019-05-02T20:14:22.902Z,37.46
2019-05-02T20:16:55.816Z,37.48
2019-05-02T20:19:27.034Z,37.39
2019-05-02T20:22:06.478Z,38.06
2019-05-02T20:25:03.739Z,37.79
2019-05-02T20:27:33.431Z,37.50
2019-05-02T20:30:03.285Z,37.54
2019-05-02T20:32:33.735Z,37.31
2019-05-02T20:35:03.803Z,37.64
2019-05-02T20:37:33.814Z,37.59
2019-05-02T20:40:03.811Z,37.68
2019-05-02T20:42:33.562Z,37.49
2019-05-02T20:45:03.406Z,37.22
2019-05-02T20:47:33.310Z,37.52
2019-05-02T20:50:05.787Z,37.21
2019-05-02T20:52:35.182Z,37.71
2019-05-02T20:55:05.398Z,37.83
2019-05-02T20:57:35.110Z,37.93
2019-05-02T21:00:05.550Z,38.21
2019-05-02T21:02:35.768Z,38.13
2019-05-02T21:05:05.825Z,38.14
2019-05-02T21:07:55.540Z,38.24
2019-05-02T21:10:29.827Z,38.11
2019-05-02T21:12:59.510Z,37.85
2019-05-02T21:15:29.158Z,37.79
2019-05-02T21:17:59.082Z,37.87
2019-05-02T21:20:28.976Z,38.17
2019-05-02T21:22:58.917Z,37.80
2019-05-02T21:25:29.487Z,38.10
2019-05-02T21:27:59.321Z,38.05
2019-05-02T21:30:29.573Z,38.04
2019-05-02T21:32:59.321Z,38.29
2019-05-02T21:35:29.254Z,38.41
2019-05-02T21:37:59.504Z,38.66
2019-05-02T21:40:29.217Z,38.10
2019-05-02T21:42:58.860Z,38.54
2019-05-02T21:45:28.698Z,38.70
2019-05-02T21:47:58.583Z,39.07
2019-05-02T21:50:49.145Z,39.16
2019-05-02T21:53:32.764Z,39.56
2019-05-02T21:56:27.459Z,39.49
2019-05-02T21:59:07.839Z,39.68
2019-05-02T22:01:47.031Z,39.44
2019-05-02T22:04:16.826Z,39.75
2019-05-02T22:06:46.967Z,39.97
2019-05-02T22:09:16.696Z,39.76
2019-05-02T22:11:46.465Z,39.70
2019-05-02T22:14:16.234Z,40.03
2019-05-02T22:16:46.001Z,40.12
2019-05-02T22:19:15.840Z,40.37
2019-05-02T22:21:45.658Z,40.63
2019-05-02T22:24:15.639Z,40.92
2019-05-02T22:26:45.440Z,41.09
2019-05-02T22:29:15.172Z,41.36
2019-05-02T22:31:46.312Z,41.43
2019-05-02T22:34:16.020Z,41.86
2019-05-02T22:36:45.800Z,41.89
2019-05-02T22:39:48.147Z,41.66
2019-05-02T22:42:17.963Z,41.68
2019-05-02T22:44:47.699Z,42.42
2019-05-02T22:47:17.379Z,42.67
2019-05-02T22:49:47.185Z,42.61
2019-05-02T22:52:16.987Z,42.29
2019-05-02T22:54:46.812Z,42.00
2019-05-02T22:57:16.545Z,41.80
2019-05-02T22:59:46.228Z,42.04
2019-05-02T23:02:15.927Z,41.93
2019-05-02T23:04:45.674Z,41.56
2019-05-02T23:07:15.422Z,41.35
2019-05-02T23:09:46.081Z,41.53
2019-05-02T23:12:15.799Z,41.68
2019-05-02T23:14:45.580Z,41.63
2019-05-02T23:17:15.421Z,41.53
2019-05-02T23:19:45.040Z,41.58
2019-05-02T23:22:14.676Z,41.98
2019-05-02T23:25:09.391Z,41.28
2019-05-02T23:27:48.610Z,41.79
2019-05-02T23:30:22.521Z,41.68
2019-05-02T23:32:52.479Z,41.98
2019-05-02T23:35:22.155Z,42.23
2019-05-02T23:37:52.938Z,42.56
2019-05-02T23:40:22.786Z,42.41
2019-05-02T23:42:52.594Z,42.58
2019-05-02T23:45:22.608Z,42.81
2019-05-02T23:47:52.771Z,44.05
2019-05-02T23:50:23.018Z,44.34
2019-05-02T23:52:52.866Z,44.63
2019-05-02T23:55:22.975Z,44.67
2019-05-02T23:57:52.845Z,44.93
